Latest Weather Observations for Lady Elliot Island

IDQ60801

Issued at 3:32 pm EST Sunday 29 May 2016 (issued every 30 minutes, with the page automatically refreshed every 10 minutes)

About weather observations | Map of weather stations | Latest weather observations for QLD | Other Formats
Station Details ID: 039059 Name: LADY ELLIOT ISLAND Lat: -24.11 Lon: 152.72 Height: 3.6 m
Data from the previous 72 hours. | See also: Recent months at Lady Elliot Island
Date/Time
EST
Temp
°C
App
Temp
°C
Dew
Point
Rel
Hum
%
Delta-T
°C
Wind Press
QNH
hPa
Press
MSL
hPa
Rain
since 9 am
mm
Dir
 
Spd
km/h
Gust
km/h
Spd
kts
Gust
kts
29/03:30pm 21.1 19.4 9.7 48 6.1 S 9 13 5 7 1017.5 1017.5 0.0
29/03:00pm 20.8 18.6 9.4 48 6.1 S 11 17 6 9 1017.4 1017.4 0.0
29/02:30pm 20.9 18.7 9.5 48 6.1 S 11 17 6 9 1017.2 1017.2 0.0
29/02:00pm 20.9 18.7 9.2 47 6.2 S 11 20 6 11 1017.3 1017.3 0.0
29/01:30pm 21.3 18.7 9.2 46 6.4 S 13 20 7 11 1017.3 1017.3 0.0
29/01:00pm 21.4 18.5 9.6 47 6.3 S 15 24 8 13 1017.5 1017.5 0.0
29/12:30pm 21.9 18.7 10.1 47 6.4 S 17 24 9 13 1017.8 1017.8 0.0
29/12:00pm 21.1 17.6 8.7 45 6.5 S 17 24 9 13 1018.3 1018.3 0.0
29/11:30am 20.9 17.1 8.9 46 6.3 S 19 24 10 13 1018.9 1018.9 0.0
29/11:00am 21.1 17.2 8.7 45 6.5 SSW 19 28 10 15 1019.0 1019.0 0.0
29/10:30am 21.0 16.7 8.0 43 6.8 SSW 20 30 11 16 1019.4 1019.4 0.0
29/10:00am 21.0 16.7 9.3 47 6.2 SSW 22 32 12 17 1019.6 1019.6 0.0
29/09:30am 20.7 16.7 9.0 47 6.2 S 20 32 11 17 1019.5 1019.5 0.0
29/09:00am 20.4 15.5 7.1 42 6.8 S 22 32 12 17 1019.2 1019.2 0.0
29/08:30am 20.2 15.5 7.9 45 6.3 S 22 30 12 16 1018.9 1018.9 0.0
29/08:00am 20.1 16.1 8.4 47 6.1 S 19 30 10 16 1018.7 1018.7 0.0
29/07:30am 19.8 15.9 8.8 49 5.8 S 19 26 10 14 1018.4 1018.4 0.0
29/07:00am 19.5 15.5 9.1 51 5.5 S 20 30 11 16 1018.1 1018.1 0.0
29/06:30am 19.4 15.2 8.4 49 5.7 S 20 28 11 15 1017.7 1017.7 0.0
29/06:00am 19.5 14.9 9.7 53 5.2 S 24 33 13 18 1017.4 1017.4 0.0
29/05:30am 19.8 15.6 11.0 57 4.8 S 24 37 13 20 1016.8 1016.8 0.0
29/05:00am 19.7 15.4 9.3 51 5.5 SSW 22 33 12 18 1016.7 1016.7 0.0
29/04:30am 20.1 14.7 7.8 45 6.3 SSW 26 35 14 19 1016.6 1016.6 0.0
29/04:00am 20.5 14.8 8.2 45 6.4 SSW 28 39 15 21 1016.5 1016.5 0.0
29/03:30am 20.6 15.7 8.6 46 6.3 SSW 24 33 13 18 1016.3 1016.3 0.0
29/03:00am 20.7 15.7 8.0 44 6.6 SSW 24 35 13 19 1016.4 1016.4 0.0
29/02:30am 21.0 16.2 8.9 46 6.4 SSW 24 35 13 19 1016.1 1016.1 0.0
29/02:00am 21.3 17.1 9.9 48 6.1 SSW 22 30 12 16 1016.0 1016.0 0.0
29/01:30am 21.3 17.5 9.9 48 6.1 SSW 20 30 11 16 1016.1 1016.1 0.0
29/01:00am 21.6 17.2 8.8 44 6.8 SSW 22 30 12 16 1016.0 1016.0 0.0
29/12:30am 21.9 17.2 10.7 49 6.1 SSW 26 35 14 19 1016.0 1016.0 0.0
29/12:00am 22.2 18.7 11.0 49 6.2 SSW 20 32 11 17 1015.8 1015.8 0.0
 
Date/Time
EST
Temp
°C
App
Temp
°C
Dew
Point
Rel
Hum
%
Delta-T
°C
Wind Press
QNH
hPa
Press
MSL
hPa
Rain
since 9 am
mm
Dir
 
Spd
km/h
Gust
km/h
Spd
kts
Gust
kts
28/11:30pm 22.3 18.9 11.4 50 6.1 SSW 20 30 11 16 1015.9 1015.9 0.0
28/11:00pm 22.5 20.2 11.6 50 6.1 SW 15 22 8 12 1016.0 1016.0 0.0
28/10:30pm 22.6 20.2 12.8 54 5.6 SW 17 28 9 15 1016.1 1016.1 0.0
28/10:00pm 22.3 20.3 12.8 55 5.4 SW 15 24 8 13 1016.1 1016.1 0.0
28/09:30pm 22.5 21.4 14.4 60 4.8 WSW 13 24 7 13 1016.1 1016.1 0.0
28/09:00pm 22.6 21.6 16.6 69 3.7 W 17 24 9 13 1015.9 1015.9 0.0
28/08:30pm 22.4 21.9 16.9 71 3.4 W 15 24 8 13 1015.8 1015.8 0.0
28/08:00pm 22.4 20.9 16.7 70 3.5 WNW 20 30 11 16 1015.5 1015.5 0.0
28/07:30pm 22.0 20.6 16.9 73 3.1 NW 20 28 11 15 1015.1 1015.1 0.0
28/07:00pm 21.7 20.8 16.9 74 2.9 NW 17 24 9 13 1014.7 1014.7 0.0
28/06:30pm 21.3 20.6 16.5 74 2.9 NW 15 20 8 11 1014.4 1014.4 0.0
28/06:00pm 21.2 20.0 16.0 72 3.1 NW 17 20 9 11 1014.1 1014.1 0.0
28/05:30pm 21.1 20.9 15.6 71 3.3 NW 11 20 6 11 1013.7 1013.7 0.0
28/05:00pm 21.1 20.1 14.7 67 3.8 NW 13 17 7 9 1013.5 1013.5 0.0
28/04:30pm 22.1 21.7 14.2 61 4.6 NW 9 13 5 7 1013.2 1013.2 0.0
28/04:00pm 22.6 22.1 13.9 58 5.1 NW 9 13 5 7 1012.8 1012.8 0.0
28/03:30pm 22.2 21.5 13.3 57 5.1 W 9 17 5 9 1012.6 1012.6 0.0
28/03:00pm 21.5 21.2 13.2 59 4.8 WSW 7 11 4 6 1012.6 1012.6 0.0
28/02:30pm 21.6 20.5 13.0 58 4.9 WSW 11 15 6 8 1012.7 1012.7 0.0
28/02:00pm 21.6 20.4 12.7 57 5.1 WSW 11 17 6 9 1012.9 1012.9 0.0
28/01:30pm 21.7 20.3 12.3 55 5.3 SW 11 17 6 9 1013.0 1013.0 0.0
28/01:00pm 22.7 20.5 12.0 50 6.0 SW 15 20 8 11 1013.3 1013.3 0.0
28/12:30pm 23.4 21.3 12.4 50 6.3 SSW 15 22 8 12 1013.5 1013.5 0.0
28/12:00pm 21.4 19.1 11.7 54 5.4 SSW 15 20 8 11 1014.1 1014.1 0.0
28/11:30am 21.6 18.4 11.3 52 5.7 SSW 19 26 10 14 1014.3 1014.3 0.0
28/11:00am 22.8 19.8 11.8 50 6.2 SSW 19 32 10 17 1014.7 1014.7 0.0
28/10:30am 21.9 18.6 11.6 52 5.7 SSW 20 28 11 15 1015.0 1015.0 0.0
28/10:00am 22.9 19.9 12.5 52 5.9 SSW 20 28 11 15 1015.2 1015.2 0.0
28/09:30am 22.8 19.8 12.7 53 5.8 SSW 20 28 11 15 1015.5 1015.5 0.0
28/09:00am 22.1 18.6 12.1 53 5.6 SSW 22 32 12 17 1015.4 1015.4 0.0
28/08:30am 22.0 18.8 13.1 57 5.1 SSW 22 30 12 16 1015.1 1015.1 0.0
28/08:00am 21.5 18.0 12.1 55 5.3 SSW 22 32 12 17 1014.9 1014.9 0.0
28/07:30am 21.1 17.9 13.0 60 4.6 S 22 30 12 16 1014.8 1014.8 0.0
28/07:00am 20.7 18.0 13.6 64 4.1 S 20 30 11 16 1014.2 1014.2 0.0
28/06:30am 20.9 17.2 13.8 64 4.1 SSW 26 35 14 19 1014.1 1014.1 0.0
28/06:00am 21.0 17.4 14.2 65 4.0 SSW 26 35 14 19 1013.7 1013.7 0.0
28/05:30am 21.3 18.4 15.2 68 3.6 SSW 24 35 13 19 1013.2 1013.2 0.0
28/05:00am 21.6 19.2 16.3 72 3.2 SSW 24 35 13 19 1012.9 1012.9 0.0
28/04:30am 21.9 20.9 17.5 76 2.7 SSW 19 30 10 16 1012.3 1012.3 0.0
28/04:00am 22.3 21.2 17.2 73 3.1 SW 19 26 10 14 1012.0 1012.0 0.0
28/03:30am 22.5 22.2 18.3 77 2.6 SSW 17 24 9 13 1011.8 1011.8 0.0
28/03:00am 22.8 22.3 17.9 74 3.1 SW 17 26 9 14 1011.7 1011.7 0.0
28/02:30am 23.1 22.0 17.8 72 3.3 SW 20 28 11 15 1011.5 1011.5 0.0
28/02:00am 23.1 22.2 16.9 68 3.8 SW 17 26 9 14 1011.3 1011.3 0.0
28/01:30am 23.6 22.5 16.4 64 4.4 SW 17 24 9 13 1011.5 1011.5 0.0
28/01:00am 23.7 23.3 16.2 63 4.6 SW 13 20 7 11 1011.2 1011.2 0.0
28/12:30am 24.0 22.3 15.8 60 5.0 SW 19 30 10 16 1011.4 1011.4 0.0
28/12:00am 24.4 22.8 16.1 60 5.1 SW 19 28 10 15 1011.4 1011.4 0.0
 
Date/Time
EST
Temp
°C
App
Temp
°C
Dew
Point
Rel
Hum
%
Delta-T
°C
Wind Press
QNH
hPa
Press
MSL
hPa
Rain
since 9 am
mm
Dir
 
Spd
km/h
Gust
km/h
Spd
kts
Gust
kts
27/11:30pm 24.2 22.7 16.7 63 4.6 SW 20 30 11 16 1011.4 1011.4 0.0
27/11:00pm 24.4 23.4 17.9 67 4.1 SW 20 30 11 16 1011.7 1011.7 0.0
27/10:30pm 24.1 25.3 21.4 85 1.8 SW 17 28 9 15 1011.6 1011.6 0.0
27/10:00pm 24.5 27.4 23.1 92 0.9 WSW 13 20 7 11 1011.2 1011.2 0.0
27/09:30pm 24.7 27.3 23.3 92 1.0 WSW 15 24 8 13 1011.3 1011.3 0.0
27/09:00pm 24.8 27.5 23.4 92 1.0 WNW 15 20 8 11 1010.8 1010.8 0.0
27/08:30pm 24.8 27.1 23.4 92 1.0 WNW 17 22 9 12 1010.6 1010.6 0.0
27/08:00pm 24.8 26.6 23.2 91 1.1 NW 19 28 10 15 1010.3 1010.3 0.0
27/07:30pm 24.6 26.3 23.0 91 1.1 NW 19 26 10 14 1009.8 1009.8 0.0
27/07:00pm 24.6 26.6 23.0 91 1.1 NW 17 26 9 14 1009.4 1009.4 0.0
27/06:30pm 24.7 26.2 23.1 91 1.1 NW 20 28 11 15 1008.8 1008.8 0.0
27/06:00pm 24.8 25.9 23.0 90 1.2 NNW 22 33 12 18 1008.4 1008.4 0.0
27/05:30pm 24.9 25.6 23.0 89 1.3 NNW 24 35 13 19 1008.1 1008.1 0.0
27/05:00pm 24.9 25.6 23.0 89 1.3 NNW 24 43 13 23 1008.0 1008.0 0.0
27/04:30pm 25.2 26.2 22.9 87 1.6 NNW 22 32 12 17 1008.0 1008.0 0.0
27/04:00pm 25.5 26.1 22.8 85 1.8 NNW 24 35 13 19 1007.7 1007.7 0.0
27/03:30pm 25.9 26.5 22.8 83 2.1 NW 24 37 13 20 1007.6 1007.6 0.0
27/03:00pm 26.4 27.1 22.9 81 2.4 NW 24 35 13 19 1007.4 1007.4 0.0
27/02:30pm 26.2 26.6 22.5 80 2.5 NW 24 37 13 20 1007.8 1007.8 0.0
27/02:00pm 26.7 26.8 22.5 78 2.8 NW 26 37 14 20 1008.1 1008.1 0.0
27/01:30pm 27.2 27.9 23.0 78 2.9 NW 24 41 13 22 1008.3 1008.3 0.0
27/01:00pm 26.7 26.8 22.5 78 2.8 NW 26 37 14 20 1008.6 1008.6 0.0
27/12:30pm 26.7 26.6 22.3 77 3.0 NW 26 41 14 22 1009.0 1009.0 0.0
27/12:00pm 26.6 26.1 22.2 77 3.0 NW 28 46 15 25 1009.6 1009.6 0.0
27/11:59am 26.8 26.5 22.6 78 2.8 NW 28 46 15 25 1009.6 1009.6 0.0
27/11:30am 26.7 26.6 22.3 77 3.0 NW 26 41 14 22 1010.1 1010.1 0.0
27/11:13am 26.3 25.8 22.2 78 2.8 NW 28 50 15 27 1009.9 1009.9 0.0
27/11:00am 26.1 25.7 22.4 80 2.5 NW 28 35 15 19 1010.1 1010.1 0.0
27/10:36am 26.7 25.9 22.3 77 3.0 NW 30 48 16 26 1010.5 1010.5 0.0
27/10:30am 26.4 25.4 22.0 77 2.9 NW 30 43 16 23 1010.6 1010.6 0.0
27/10:00am 26.4 25.2 21.6 75 3.2 NW 30 44 16 24 1010.9 1010.9 0.0
27/09:30am 26.2 25.7 22.1 78 2.7 NW 28 44 15 24 1011.0 1011.0 0.0
27/09:00am 26.0 25.5 22.1 79 2.6 NW 28 44 15 24 1011.1 1011.1 0.0
27/08:43am 25.6 24.5 21.7 79 2.6 NW 30 48 16 26 1011.0 1011.0 0.0
27/08:30am 25.5 23.9 21.6 79 2.6 NW 32 44 17 24 1011.0 1011.0 0.0
27/08:04am 25.3 24.4 21.4 79 2.6 NW 28 46 15 25 1010.9 1010.9 0.0
27/08:00am 25.2 24.2 21.3 79 2.6 NW 28 44 15 24 1010.9 1010.9 0.0
27/07:44am 25.1 23.6 21.0 78 2.7 NW 30 48 16 26 1011.1 1011.1 0.0
27/07:30am 25.0 23.7 21.3 80 2.4 NW 30 41 16 22 1011.0 1011.0 0.0
27/07:00am 24.6 22.6 20.7 79 2.6 NW 32 46 17 25 1010.6 1010.6 0.0
27/06:32am 24.5 23.4 21.0 81 2.3 NW 28 50 15 27 1010.3 1010.3 0.0
27/06:30am 24.5 23.5 21.2 82 2.2 NW 28 43 15 23 1010.3 1010.3 0.0
27/06:00am 24.5 22.8 20.6 79 2.5 NW 30 44 16 24 1010.3 1010.3 0.0
27/05:36am 24.4 23.0 20.5 79 2.5 NW 28 46 15 25 1010.2 1010.2 0.0
27/05:30am 24.4 22.4 20.7 80 2.4 NW 32 46 17 25 1010.1 1010.1 0.0
27/05:00am 24.3 23.0 20.6 80 2.4 NW 28 44 15 24 1010.0 1010.0 0.0
27/04:30am 24.4 22.8 20.7 80 2.4 NNW 30 44 16 24 1010.0 1010.0 0.0
27/04:11am 24.3 22.8 20.2 78 2.7 NNW 28 46 15 25 1010.0 1010.0 0.0
27/04:00am 24.3 22.7 20.0 77 2.8 NW 28 41 15 22 1010.0 1010.0 0.0
27/03:30am 24.4 22.9 20.3 78 2.7 NNW 28 41 15 22 1010.0 1010.0 0.0
27/03:00am 24.3 22.8 20.2 78 2.7 NNW 28 48 15 26 1010.3 1010.3 0.0
27/02:52am 24.3 22.8 20.2 78 2.7 NNW 28 48 15 26 1010.4 1010.4 0.0
27/02:30am 24.3 22.3 20.0 77 2.8 NNW 30 44 16 24 1010.5 1010.5 0.0
27/02:00am 24.2 22.5 19.7 76 2.9 NNW 28 44 15 24 1010.8 1010.8 0.0
27/01:30am 24.3 23.1 20.0 77 2.8 NNW 26 41 14 22 1011.2 1011.2 0.0
27/01:00am 24.3 23.2 20.2 78 2.7 NNW 26 41 14 22 1011.5 1011.5 0.0
27/12:30am 24.4 22.7 19.7 75 3.0 NNW 28 41 15 22 1011.7 1011.7 0.0
27/12:00am 24.3 21.7 19.6 75 3.0 NNW 32 46 17 25 1011.5 1011.5 0.0
 
Date/Time
EST
Temp
°C
App
Temp
°C
Dew
Point
Rel
Hum
%
Delta-T
°C
Wind Press
QNH
hPa
Press
MSL
hPa
Rain
since 9 am
mm
Dir
 
Spd
km/h
Gust
km/h
Spd
kts
Gust
kts
26/11:30pm 24.3 21.1 19.4 74 3.1 NNW 35 48 19 26 1011.5 1011.5 0.0
26/11:00pm 24.2 21.0 19.5 75 3.0 NNW 35 50 19 27 1011.7 1011.7 0.0
26/10:30pm 24.2 21.6 19.5 75 3.0 NNW 32 43 17 23 1012.2 1012.2 0.0
26/10:25pm 24.1 21.4 19.6 76 2.9 NNW 33 52 18 28 1012.2 1012.2 0.0
26/10:00pm 23.9 21.0 20.0 79 2.5 NNW 35 46 19 25 1012.3 1012.3 0.0
26/09:30pm 24.0 20.5 19.7 77 2.8 NNW 37 48 20 26 1012.6 1012.6 0.0
26/09:00pm 23.8 20.3 19.7 78 2.6 NNW 37 44 20 24 1012.8 1012.8 0.0
26/08:30pm 23.9 21.4 19.8 78 2.6 NNW 32 43 17 23 1013.1 1013.1 0.0
26/08:00pm 23.9 21.9 20.0 79 2.5 NNW 30 39 16 21 1013.3 1013.3 0.0
26/07:30pm 23.9 21.9 19.2 75 3.0 NNW 28 39 15 21 1013.4 1013.4 0.0
26/07:00pm 24.0 22.9 19.5 76 2.9 NNW 24 41 13 22 1013.7 1013.7 0.0
26/06:30pm 23.9 23.2 19.4 76 2.9 NNW 22 33 12 18 1013.5 1013.5 0.0
26/06:00pm 23.8 23.2 18.9 74 3.1 NNW 20 28 11 15 1013.3 1013.3 0.0
26/05:30pm 23.9 23.4 19.2 75 3.0 NNW 20 28 11 15 1012.7 1012.7 0.0
26/05:00pm 24.0 23.2 19.3 75 3.0 NNW 22 30 12 16 1012.2 1012.2 0.0
26/04:30pm 24.5 23.6 19.1 72 3.4 NNW 22 33 12 18 1012.1 1012.1 0.0
26/04:00pm 24.8 24.4 19.4 72 3.5 NNW 20 30 11 16 1012.1 1012.1 0.0

Other Formats:

Comma delimited format used in spreadsheet applications
http://www.bom.gov.au/fwo/IDQ60801/IDQ60801.94388.axf

JavaScript Object Notation format (JSON) in row-major order
http://www.bom.gov.au/fwo/IDQ60801/IDQ60801.94388.json